createdAt,value
2018-09-17T00:01:04.821Z,91.80
2018-09-17T00:03:33.012Z,91.80
2018-09-17T00:06:01.134Z,91.80
2018-09-17T00:08:29.272Z,91.80
2018-09-17T00:10:57.438Z,91.80
2018-09-17T00:13:25.585Z,91.80
2018-09-17T00:15:53.721Z,91.90
2018-09-17T00:18:21.855Z,91.90
2018-09-17T00:20:50.032Z,92.20
2018-09-17T00:23:18.156Z,92.00
2018-09-17T00:25:46.312Z,92.10
2018-09-17T00:28:14.451Z,92.10
2018-09-17T00:30:42.633Z,92.20
2018-09-17T00:33:10.770Z,92.30
2018-09-17T00:35:38.905Z,92.30
2018-09-17T00:38:07.084Z,92.50
2018-09-17T00:40:35.252Z,92.60
2018-09-17T00:43:03.428Z,92.60
2018-09-17T00:45:31.609Z,92.70
2018-09-17T00:47:59.734Z,92.80
2018-09-17T00:50:27.881Z,93.00
2018-09-17T00:52:56.028Z,93.10
2018-09-17T00:55:24.237Z,93.10
2018-09-17T00:57:52.403Z,93.20
2018-09-17T01:00:20.644Z,93.20
2018-09-17T01:02:48.863Z,93.30
2018-09-17T01:05:17.125Z,93.50
2018-09-17T01:07:45.407Z,93.60
2018-09-17T01:10:13.580Z,93.70
2018-09-17T01:12:41.716Z,93.70
2018-09-17T01:15:09.903Z,94.10
2018-09-17T01:17:38.102Z,93.90
2018-09-17T01:20:06.313Z,94.00
2018-09-17T01:22:34.478Z,94.10
2018-09-17T01:25:02.590Z,94.10
2018-09-17T01:27:30.835Z,94.20
2018-09-17T01:29:58.941Z,94.30
2018-09-17T01:32:27.117Z,94.40
2018-09-17T01:34:55.255Z,94.50
2018-09-17T01:37:23.434Z,94.50
2018-09-17T01:39:51.593Z,94.50
2018-09-17T01:42:19.780Z,94.60
2018-09-17T01:44:47.949Z,94.60
2018-09-17T01:47:16.138Z,94.70
2018-09-17T01:49:44.372Z,94.60
2018-09-17T01:52:12.621Z,94.70
2018-09-17T01:54:40.897Z,94.80
2018-09-17T01:57:09.099Z,94.90
2018-09-17T01:59:37.859Z,94.90
2018-09-17T02:02:07.686Z,95.00
2018-09-17T02:04:36.320Z,95.00
2018-09-17T02:07:04.553Z,95.10
2018-09-17T02:09:33.899Z,95.00
2018-09-17T02:12:02.030Z,95.10
2018-09-17T02:14:30.167Z,95.20
2018-09-17T02:16:58.315Z,95.30
2018-09-17T02:19:26.547Z,95.30
2018-09-17T02:21:54.682Z,95.30
2018-09-17T02:24:22.861Z,95.60
2018-09-17T02:26:51.001Z,95.40
2018-09-17T02:29:20.291Z,95.40
2018-09-17T02:31:48.465Z,95.40
2018-09-17T02:34:16.836Z,95.40
2018-09-17T02:36:44.981Z,95.50
2018-09-17T02:39:13.199Z,95.50
2018-09-17T02:41:41.349Z,95.50
2018-09-17T02:44:09.485Z,95.80
2018-09-17T02:46:37.623Z,95.60
2018-09-17T02:49:05.935Z,95.60
2018-09-17T02:51:34.076Z,95.60
2018-09-17T02:54:03.023Z,95.60
2018-09-17T02:56:31.154Z,95.70
2018-09-17T02:59:00.482Z,95.70
2018-09-17T03:01:28.651Z,95.70
2018-09-17T03:03:56.811Z,95.70
2018-09-17T03:06:24.969Z,96.00
2018-09-17T03:08:53.184Z,95.70
2018-09-17T03:11:21.340Z,95.70
2018-09-17T03:13:49.549Z,95.70
2018-09-17T03:16:18.169Z,95.70
2018-09-17T03:18:53.189Z,95.80
2018-09-17T03:21:21.605Z,95.80
2018-09-17T03:23:49.786Z,95.80
2018-09-17T03:26:19.393Z,95.90
2018-09-17T03:28:48.243Z,95.80
2018-09-17T03:31:16.477Z,95.90
2018-09-17T03:33:44.625Z,95.90
2018-09-17T03:36:12.905Z,95.90
2018-09-17T03:38:42.746Z,95.90
2018-09-17T03:41:13.027Z,95.90
2018-09-17T03:43:42.485Z,96.10
2018-09-17T03:46:10.880Z,96.10
2018-09-17T03:48:39.816Z,96.10
2018-09-17T03:51:08.521Z,96.10
2018-09-17T03:53:37.003Z,96.10
2018-09-17T03:56:05.136Z,96.10
2018-09-17T03:58:33.439Z,96.20
2018-09-17T04:01:02.257Z,96.20
2018-09-17T04:03:30.379Z,96.20
2018-09-17T04:05:58.743Z,96.20
2018-09-17T04:08:26.984Z,96.40
2018-09-17T04:10:55.219Z,96.30
2018-09-17T04:13:23.393Z,96.30
2018-09-17T04:15:51.569Z,96.30
2018-09-17T04:18:19.671Z,96.30
2018-09-17T04:20:47.885Z,96.40
2018-09-17T04:23:20.289Z,96.40
2018-09-17T04:25:48.537Z,96.40
2018-09-17T04:28:16.684Z,96.40
2018-09-17T04:30:44.830Z,96.50
2018-09-17T04:33:13.084Z,96.40
2018-09-17T04:35:41.265Z,96.40
2018-09-17T04:38:09.503Z,96.40
2018-09-17T04:40:38.979Z,96.40
2018-09-17T04:43:07.201Z,96.40
2018-09-17T04:45:35.387Z,96.30
2018-09-17T04:48:03.871Z,96.30
2018-09-17T04:50:32.114Z,96.20
2018-09-17T04:53:00.425Z,96.10
2018-09-17T04:55:30.955Z,95.90
2018-09-17T04:57:59.162Z,95.80
2018-09-17T05:00:27.322Z,95.70
2018-09-17T05:02:56.987Z,95.60
2018-09-17T05:05:25.443Z,95.50
2018-09-17T05:07:53.561Z,95.40
2018-09-17T05:10:21.669Z,95.20
2018-09-17T05:12:50.131Z,95.20
2018-09-17T05:15:18.227Z,95.10
2018-09-17T05:17:46.395Z,95.10
2018-09-17T05:20:14.539Z,95.10
2018-09-17T05:22:42.677Z,95.00
2018-09-17T05:25:10.819Z,94.90
2018-09-17T05:27:39.059Z,94.80
2018-09-17T05:30:07.311Z,94.70
2018-09-17T05:32:35.484Z,94.60
2018-09-17T05:35:03.715Z,94.50
2018-09-17T05:37:31.879Z,94.20
2018-09-17T05:40:00.106Z,94.00
2018-09-17T05:42:28.262Z,93.80
2018-09-17T05:44:56.463Z,93.80
2018-09-17T05:47:24.987Z,93.30
2018-09-17T05:49:53.164Z,93.10
2018-09-17T05:52:21.328Z,92.80
2018-09-17T05:54:49.482Z,92.70
2018-09-17T05:57:17.668Z,92.60
2018-09-17T05:59:45.904Z,92.20
2018-09-17T06:02:14.057Z,92.20
2018-09-17T06:04:42.239Z,91.80
2018-09-17T06:07:10.581Z,91.80
2018-09-17T06:09:39.535Z,91.60
2018-09-17T06:12:07.723Z,91.40
2018-09-17T06:14:36.047Z,91.00
2018-09-17T06:17:04.155Z,90.50
2018-09-17T06:19:32.273Z,90.30
2018-09-17T06:22:00.469Z,89.70
2018-09-17T06:24:28.699Z,89.10
2018-09-17T06:26:56.879Z,88.80
2018-09-17T06:29:25.025Z,87.10
2018-09-17T06:31:53.227Z,85.60
2018-09-17T06:34:21.387Z,85.20
2018-09-17T06:36:50.279Z,85.40
2018-09-17T06:39:19.127Z,84.10
2018-09-17T06:41:47.333Z,83.30
2018-09-17T06:44:15.500Z,82.30
2018-09-17T06:46:43.633Z,82.20
2018-09-17T06:49:11.803Z,81.20
2018-09-17T06:51:39.979Z,80.90
2018-09-17T06:54:08.439Z,80.10
2018-09-17T06:56:36.591Z,79.80
2018-09-17T06:59:04.815Z,80.40
2018-09-17T07:01:33.189Z,79.40
2018-09-17T07:04:01.509Z,79.30
2018-09-17T07:06:30.345Z,79.50
2018-09-17T07:08:59.887Z,79.10
2018-09-17T07:11:28.039Z,78.60
2018-09-17T07:13:56.173Z,77.40
2018-09-17T07:16:25.335Z,77.20
2018-09-17T07:18:53.545Z,76.20
2018-09-17T07:21:21.719Z,75.70
2018-09-17T07:23:49.929Z,75.90
2018-09-17T07:26:18.150Z,74.90
2018-09-17T07:28:46.419Z,74.70
2018-09-17T07:31:14.585Z,74.70
2018-09-17T07:33:42.831Z,74.70
2018-09-17T07:36:11.401Z,73.40
2018-09-17T07:38:39.579Z,73.60
2018-09-17T07:41:07.729Z,73.30
2018-09-17T07:43:36.167Z,72.90
2018-09-17T07:46:04.922Z,72.30
2018-09-17T07:48:34.207Z,72.50
2018-09-17T07:51:03.776Z,72.30
2018-09-17T07:53:31.900Z,72.30
2018-09-17T07:56:00.313Z,71.90
2018-09-17T07:58:29.477Z,71.00
2018-09-17T08:00:57.631Z,70.50
2018-09-17T08:03:25.820Z,70.10
2018-09-17T08:05:53.969Z,69.50
2018-09-17T08:08:22.181Z,69.50
2018-09-17T08:10:50.358Z,69.10
2018-09-17T08:13:18.592Z,69.10
2018-09-17T08:15:46.837Z,68.50
2018-09-17T08:18:15.005Z,67.70
2018-09-17T08:20:43.151Z,67.90
2018-09-17T08:23:12.169Z,67.10
2018-09-17T08:25:40.315Z,66.70
2018-09-17T08:28:08.463Z,66.80
2018-09-17T08:30:36.609Z,65.50
2018-09-17T08:33:04.753Z,64.90
2018-09-17T08:35:32.999Z,64.40
2018-09-17T08:38:01.154Z,63.20
2018-09-17T08:40:29.403Z,62.40
2018-09-17T08:42:57.646Z,61.70
2018-09-17T08:45:25.832Z,61.10
2018-09-17T08:47:53.993Z,60.20
2018-09-17T08:50:22.175Z,59.50
2018-09-17T08:52:50.439Z,59.10
2018-09-17T08:56:24.693Z,59.20
2018-09-17T08:59:04.159Z,58.50
2018-09-17T09:01:37.972Z,57.80
2018-09-17T09:04:11.503Z,57.00
2018-09-17T09:06:45.107Z,56.50
2018-09-17T09:09:13.789Z,56.50
2018-09-17T09:11:47.432Z,56.00
2018-09-17T09:14:20.975Z,55.70
2018-09-17T09:16:49.138Z,55.50
2018-09-17T09:19:17.309Z,54.70
2018-09-17T09:21:45.531Z,54.50
2018-09-17T09:24:13.733Z,53.80
2018-09-17T09:26:41.937Z,53.90
2018-09-17T09:29:10.110Z,53.70
2018-09-17T09:31:38.329Z,53.40
2018-09-17T09:34:06.539Z,54.00
2018-09-17T09:36:34.739Z,53.90
2018-09-17T09:39:02.889Z,53.90
2018-09-17T09:41:31.148Z,53.90
2018-09-17T09:43:59.306Z,53.90
2018-09-17T09:46:27.503Z,53.40
2018-09-17T09:48:55.798Z,52.80
2018-09-17T09:51:23.963Z,52.40
2018-09-17T09:53:52.157Z,52.70
2018-09-17T09:56:20.349Z,52.90
2018-09-17T09:58:48.556Z,52.90
2018-09-17T10:01:22.115Z,52.60
2018-09-17T10:03:55.569Z,52.30
2018-09-17T10:06:23.688Z,51.40
2018-09-17T10:08:57.515Z,51.80
2018-09-17T10:11:31.328Z,51.30
2018-09-17T10:14:04.913Z,50.70
2018-09-17T10:16:33.090Z,50.60
2018-09-17T10:19:06.833Z,50.60
2018-09-17T10:21:34.986Z,50.10
2018-09-17T10:24:03.297Z,49.30
2018-09-17T10:26:32.288Z,49.30
2018-09-17T10:29:00.496Z,48.30
2018-09-17T10:31:28.640Z,48.50
2018-09-17T10:33:56.812Z,48.60
2018-09-17T10:36:25.022Z,48.60
2018-09-17T10:38:53.226Z,48.80
2018-09-17T10:41:21.368Z,47.70
2018-09-17T10:43:49.592Z,47.80
2018-09-17T10:46:17.743Z,46.30
2018-09-17T10:48:45.919Z,46.10
2018-09-17T10:51:14.065Z,46.20
2018-09-17T10:53:42.208Z,46.60
2018-09-17T10:56:10.380Z,46.30
2018-09-17T10:58:38.617Z,47.10
2018-09-17T11:01:06.829Z,46.20
2018-09-17T11:03:36.024Z,46.90
2018-09-17T11:06:04.165Z,45.70
2018-09-17T11:08:32.325Z,45.80
2018-09-17T11:11:00.578Z,45.20
2018-09-17T11:13:28.722Z,45.60
2018-09-17T11:15:56.905Z,44.60
2018-09-17T11:18:25.068Z,44.90
2018-09-17T11:20:53.178Z,45.10
2018-09-17T11:23:21.316Z,45.60
2018-09-17T11:25:49.519Z,45.10
2018-09-17T11:28:17.664Z,45.40
2018-09-17T11:30:45.794Z,45.60
2018-09-17T11:33:13.990Z,45.20
2018-09-17T11:35:42.213Z,44.30
2018-09-17T11:38:10.532Z,44.30
2018-09-17T11:40:38.638Z,44.50
2018-09-17T11:43:06.812Z,44.70
2018-09-17T11:45:34.912Z,44.60
2018-09-17T11:48:03.082Z,44.10
2018-09-17T11:50:31.265Z,43.60
2018-09-17T11:52:59.498Z,43.40
2018-09-17T11:55:27.713Z,42.80
2018-09-17T11:57:55.843Z,42.40
2018-09-17T12:00:29.393Z,41.90
2018-09-17T12:03:04.047Z,42.10
2018-09-17T12:05:37.619Z,42.00
2018-09-17T12:08:10.264Z,41.00
2018-09-17T12:10:38.468Z,41.20
2018-09-17T12:13:06.609Z,41.90
2018-09-17T12:15:39.024Z,41.50
2018-09-17T12:18:07.561Z,41.60
2018-09-17T12:20:36.181Z,41.90
2018-09-17T12:23:04.485Z,42.10
2018-09-17T12:25:32.836Z,41.60
2018-09-17T12:28:00.990Z,39.20
2018-09-17T12:30:29.157Z,38.50
2018-09-17T12:32:57.299Z,39.10
2018-09-17T12:35:25.890Z,39.60
2018-09-17T12:37:54.117Z,39.70
2018-09-17T12:40:23.100Z,40.40
2018-09-17T12:42:51.421Z,40.70
2018-09-17T12:45:20.087Z,39.20
2018-09-17T12:47:48.267Z,38.60
2018-09-17T12:50:16.449Z,38.00
2018-09-17T12:52:44.721Z,38.30
2018-09-17T12:55:12.892Z,37.60
2018-09-17T12:57:41.096Z,38.20
2018-09-17T13:00:10.049Z,37.90
2018-09-17T13:02:38.227Z,38.10
2018-09-17T13:05:06.584Z,38.60
2018-09-17T13:07:34.861Z,38.00
2018-09-17T13:10:03.009Z,38.10
2018-09-17T13:12:31.187Z,38.70
2018-09-17T13:14:59.337Z,38.40
2018-09-17T13:17:27.511Z,38.90
2018-09-17T13:19:55.713Z,39.00
2018-09-17T13:22:23.912Z,39.00
2018-09-17T13:24:52.538Z,39.10
2018-09-17T13:27:20.715Z,38.40
2018-09-17T13:29:48.895Z,38.30
2018-09-17T13:32:17.065Z,37.90
2018-09-17T13:34:45.212Z,38.30
2018-09-17T13:37:13.429Z,37.90
2018-09-17T13:39:41.580Z,38.20
2018-09-17T13:42:09.764Z,38.50
2018-09-17T13:44:38.182Z,37.80
2018-09-17T13:47:06.111Z,37.60
2018-09-17T13:49:34.268Z,36.80
2018-09-17T13:52:02.489Z,36.90
2018-09-17T13:54:30.651Z,37.00
2018-09-17T13:56:58.802Z,37.90
2018-09-17T13:59:26.954Z,38.20
2018-09-17T14:01:55.251Z,37.70
2018-09-17T14:04:23.614Z,37.60
2018-09-17T14:06:51.669Z,39.00
2018-09-17T14:09:19.875Z,38.30
2018-09-17T14:11:48.046Z,38.20
2018-09-17T14:14:16.200Z,37.60
2018-09-17T14:16:44.354Z,37.90
2018-09-17T14:19:13.165Z,37.80
2018-09-17T14:21:41.339Z,37.80
2018-09-17T14:24:09.468Z,38.30
2018-09-17T14:26:37.622Z,37.70
2018-09-17T14:29:05.886Z,37.70
2018-09-17T14:31:39.478Z,37.20
2018-09-17T14:34:07.672Z,36.50
2018-09-17T14:36:35.852Z,36.90
2018-09-17T14:39:05.396Z,37.10
2018-09-17T14:41:33.632Z,37.60
2018-09-17T14:44:01.835Z,38.00
2018-09-17T14:46:30.151Z,38.30
2018-09-17T14:48:59.013Z,39.00
2018-09-17T14:51:27.118Z,39.00
2018-09-17T14:53:55.339Z,39.10
2018-09-17T14:56:23.548Z,39.20
2018-09-17T14:58:51.770Z,39.00
2018-09-17T15:01:19.965Z,39.20
2018-09-17T15:03:48.133Z,38.10
2018-09-17T15:06:16.290Z,38.50
2018-09-17T15:08:44.555Z,39.00
2018-09-17T15:11:12.620Z,39.00
2018-09-17T15:13:42.102Z,39.10
2018-09-17T15:16:10.388Z,39.50
2018-09-17T15:18:38.547Z,39.50
2018-09-17T15:21:06.756Z,39.50
2018-09-17T15:23:34.909Z,39.80
2018-09-17T15:26:03.113Z,40.20
2018-09-17T15:28:32.467Z,39.70
2018-09-17T15:31:00.730Z,39.50
2018-09-17T15:33:30.064Z,39.30
2018-09-17T15:35:58.238Z,39.60
2018-09-17T15:38:26.449Z,39.00
2018-09-17T15:40:54.613Z,39.30
2018-09-17T15:43:22.793Z,39.30
2018-09-17T15:45:50.921Z,40.00
2018-09-17T15:48:20.007Z,40.20
2018-09-17T15:50:48.179Z,39.40
2018-09-17T15:53:16.313Z,40.00
2018-09-17T15:55:44.573Z,40.50
2018-09-17T15:58:12.842Z,40.90
2018-09-17T16:00:41.304Z,40.60
2018-09-17T16:03:09.617Z,40.90
2018-09-17T16:05:37.824Z,40.60
2018-09-17T16:08:06.548Z,40.40
2018-09-17T16:10:34.747Z,40.30
2018-09-17T16:13:03.004Z,41.40
2018-09-17T16:15:31.484Z,41.70
2018-09-17T16:17:59.818Z,41.80
2018-09-17T16:20:27.957Z,42.30
2018-09-17T16:22:56.571Z,41.70
2018-09-17T16:25:24.755Z,41.60
2018-09-17T16:27:52.981Z,41.90
2018-09-17T16:30:21.449Z,42.30
2018-09-17T16:32:49.613Z,43.20
2018-09-17T16:35:18.251Z,43.30
2018-09-17T16:37:46.432Z,43.70
2018-09-17T16:40:14.613Z,43.60
2018-09-17T16:42:42.921Z,44.20
2018-09-17T16:45:11.111Z,45.10
2018-09-17T16:47:39.273Z,45.30
2018-09-17T16:50:07.509Z,45.70
2018-09-17T16:52:35.773Z,45.30
2018-09-17T16:55:04.041Z,45.80
2018-09-17T16:57:32.207Z,46.40
2018-09-17T17:00:00.389Z,46.70
2018-09-17T17:02:28.629Z,47.00
2018-09-17T17:04:56.886Z,47.00
2018-09-17T17:07:25.102Z,47.10
2018-09-17T17:09:53.373Z,47.30
2018-09-17T17:12:22.037Z,47.70
2018-09-17T17:14:50.311Z,47.90
2018-09-17T17:17:18.599Z,48.20
2018-09-17T17:19:46.767Z,48.60
2018-09-17T17:22:14.960Z,48.80
2018-09-17T17:24:43.227Z,49.10
2018-09-17T17:27:11.403Z,49.40
2018-09-17T17:29:39.665Z,49.50
2018-09-17T17:32:08.266Z,49.60
2018-09-17T17:34:36.426Z,49.60
2018-09-17T17:37:04.667Z,49.60
2018-09-17T17:39:32.916Z,49.90
2018-09-17T17:42:01.076Z,50.10
2018-09-17T17:44:29.366Z,50.10
2018-09-17T17:46:58.291Z,50.30
2018-09-17T17:49:26.490Z,50.70
2018-09-17T17:51:54.703Z,50.90
2018-09-17T17:54:22.964Z,51.10
2018-09-17T17:56:51.151Z,51.60
2018-09-17T17:59:19.330Z,51.80
2018-09-17T18:01:47.593Z,52.00
2018-09-17T18:04:15.910Z,52.50
2018-09-17T18:06:44.137Z,52.90
2018-09-17T18:09:13.036Z,53.40
2018-09-17T18:11:41.580Z,53.80
2018-09-17T18:14:10.249Z,54.10
2018-09-17T18:16:38.521Z,54.30
2018-09-17T18:19:06.831Z,54.60
2018-09-17T18:21:35.777Z,54.60
2018-09-17T18:24:03.917Z,54.90
2018-09-17T18:26:32.685Z,55.10
2018-09-17T18:29:00.842Z,55.30
2018-09-17T18:31:29.249Z,55.60
2018-09-17T18:33:57.425Z,55.70
2018-09-17T18:36:25.648Z,55.90
2018-09-17T18:38:53.852Z,56.00
2018-09-17T18:41:22.131Z,56.00
2018-09-17T18:43:50.322Z,56.10
2018-09-17T18:46:18.493Z,56.80
2018-09-17T18:48:46.769Z,56.40
2018-09-17T18:51:15.059Z,56.50
2018-09-17T18:53:43.278Z,56.90
2018-09-17T18:56:11.524Z,57.10
2018-09-17T18:58:39.688Z,57.60
2018-09-17T19:01:07.904Z,57.70
2018-09-17T19:03:36.118Z,58.00
2018-09-17T19:06:04.391Z,58.20
2018-09-17T19:08:32.665Z,58.40
2018-09-17T19:11:00.877Z,58.60
2018-09-17T19:13:29.563Z,58.80
2018-09-17T19:15:58.588Z,58.90
2018-09-17T19:18:26.767Z,59.10
2018-09-17T19:20:55.278Z,59.10
2018-09-17T19:23:28.658Z,59.40
2018-09-17T19:25:57.022Z,59.90
2018-09-17T19:28:30.512Z,60.10
2018-09-17T19:30:58.716Z,60.60
2018-09-17T19:33:26.978Z,60.70
2018-09-17T19:35:55.225Z,61.30
2018-09-17T19:38:29.966Z,61.60
2018-09-17T19:40:58.227Z,62.00
2018-09-17T19:43:26.449Z,62.40
2018-09-17T19:46:00.305Z,62.70
2018-09-17T19:48:28.564Z,63.00
2018-09-17T19:51:03.329Z,63.20
2018-09-17T19:53:31.994Z,63.90
2018-09-17T19:56:00.327Z,64.10
2018-09-17T19:58:33.915Z,64.60
2018-09-17T20:01:02.848Z,65.20
2018-09-17T20:03:31.095Z,65.70
2018-09-17T20:06:04.875Z,66.30
2018-09-17T20:08:33.041Z,66.90
2018-09-17T20:11:01.232Z,67.50
2018-09-17T20:13:30.299Z,68.10
2018-09-17T20:16:00.646Z,68.70
2018-09-17T20:18:28.936Z,69.10
2018-09-17T20:20:57.184Z,69.60
2018-09-17T20:23:25.429Z,70.10
2018-09-17T20:25:53.635Z,71.00
2018-09-17T20:28:21.767Z,71.40
2018-09-17T20:30:50.048Z,72.10
2018-09-17T20:33:18.661Z,72.40
2018-09-17T20:35:46.936Z,72.90
2018-09-17T20:38:15.217Z,73.50
2018-09-17T20:40:43.426Z,74.00
2018-09-17T20:43:11.635Z,74.10
2018-09-17T20:45:39.835Z,74.80
2018-09-17T20:48:07.979Z,75.30
2018-09-17T20:50:36.186Z,75.80
2018-09-17T20:53:04.390Z,76.50
2018-09-17T20:55:32.631Z,76.80
2018-09-17T20:58:00.861Z,77.00
2018-09-17T21:00:29.063Z,77.40
2018-09-17T21:02:57.229Z,77.80
2018-09-17T21:05:25.365Z,78.10
2018-09-17T21:07:53.537Z,78.60
2018-09-17T21:10:21.672Z,78.90
2018-09-17T21:12:49.979Z,79.40
2018-09-17T21:15:18.160Z,79.40
2018-09-17T21:17:46.340Z,79.60
2018-09-17T21:20:14.542Z,80.10
2018-09-17T21:22:42.902Z,80.40
2018-09-17T21:25:11.213Z,80.70
2018-09-17T21:27:39.401Z,81.20
2018-09-17T21:30:07.736Z,81.50
2018-09-17T21:32:36.979Z,81.80
2018-09-17T21:35:05.133Z,82.00
2018-09-17T21:37:33.313Z,82.50
2018-09-17T21:40:03.014Z,83.00
2018-09-17T21:42:31.250Z,83.10
2018-09-17T21:44:59.432Z,83.30
2018-09-17T21:47:27.594Z,84.40
2018-09-17T21:49:55.824Z,83.80
2018-09-17T21:52:24.038Z,84.00
2018-09-17T21:54:52.186Z,84.20
2018-09-17T21:57:20.360Z,84.70
2018-09-17T21:59:48.515Z,85.00
2018-09-17T22:02:16.773Z,85.30
2018-09-17T22:04:44.888Z,85.70
2018-09-17T22:07:13.160Z,85.80
2018-09-17T22:09:41.412Z,86.30
2018-09-17T22:12:09.608Z,86.50
2018-09-17T22:14:37.784Z,86.70
2018-09-17T22:17:06.195Z,86.90
2018-09-17T22:19:34.433Z,87.20
2018-09-17T22:22:02.613Z,87.30
2018-09-17T22:24:30.730Z,87.40
2018-09-17T22:26:58.906Z,87.70
2018-09-17T22:29:27.102Z,87.90
2018-09-17T22:31:55.283Z,88.00
2018-09-17T22:34:23.435Z,87.90
2018-09-17T22:36:51.633Z,87.90
2018-09-17T22:39:19.786Z,88.20
2018-09-17T22:41:47.954Z,88.30
2018-09-17T22:44:16.160Z,88.40
2018-09-17T22:46:44.323Z,88.50
2018-09-17T22:49:12.482Z,88.50
2018-09-17T22:51:40.636Z,88.50
2018-09-17T22:54:08.784Z,88.30
2018-09-17T22:56:36.916Z,88.30
2018-09-17T22:59:05.190Z,88.10
2018-09-17T23:01:33.368Z,88.10
2018-09-17T23:04:01.510Z,88.10
2018-09-17T23:06:29.684Z,88.10
2018-09-17T23:08:57.991Z,88.00
2018-09-17T23:11:26.129Z,88.10
2018-09-17T23:13:54.312Z,88.00
2018-09-17T23:16:22.430Z,87.90
2018-09-17T23:18:50.597Z,88.10
2018-09-17T23:21:19.518Z,88.90
2018-09-17T23:23:47.784Z,88.40
2018-09-17T23:26:16.310Z,88.60
2018-09-17T23:28:44.645Z,88.50
2018-09-17T23:31:12.846Z,88.50
2018-09-17T23:33:41.032Z,88.40
2018-09-17T23:36:09.299Z,88.60
2018-09-17T23:38:37.584Z,88.70
2018-09-17T23:41:05.956Z,88.80
2018-09-17T23:43:34.206Z,88.90
2018-09-17T23:46:02.386Z,89.10
2018-09-17T23:48:30.624Z,89.10
2018-09-17T23:50:58.823Z,89.10
2018-09-17T23:53:27.174Z,89.30
2018-09-17T23:55:55.355Z,89.60
2018-09-17T23:58:23.593Z,89.40
